<?xml version="1.0" encoding="UTF-8" standalone="no" ?>
<gpx xmlns="http://www.topografix.com/GPX/1/1" xmlns:xsi="http://www.w3.org/2001/XMLSchema-instance" xsi:schemaLocation="http://www.topografix.com/GPX/1/1 http://www.topografix.com/GPX/1/1/gpx.xsd" version="1.1" creator="VisuGPX - https://www.visugpx.com">
  <metadata>
    <name>RochefortEnTerre_PinsMoulinNeuf_Malansac_14-19km</name>
    <desc><![CDATA[gnerando idor:7901395_8151206_8308528]]></desc>
  </metadata>
  <trk>
    <name><![CDATA[RochefortTerre_EtangMoulinNeuf_14km-8151206]]></name>
    <extensions>
      <line xmlns="http://www.topografix.com/GPX/gpx_style/0/2">
        <color>00FF00</color>
        <width>4</width>
      </line>
    </extensions>
    <trkseg>
      <trkpt lat="47.69919" lon="-2.33729">
        <ele>56</ele>
        <time>2023-11-11T19:12:21Z</time>
      </trkpt>
      <trkpt lat="47.69725" lon="-2.33644">
        <ele>39</ele>
        <time>2023-11-11T19:16:51Z</time>
      </trkpt>
      <trkpt lat="47.6965" lon="-2.33931">
        <ele>50</ele>
        <time>2023-11-11T19:21:27Z</time>
      </trkpt>
      <trkpt lat="47.69558" lon="-2.3397">
        <ele>55</ele>
        <time>2023-11-11T19:23:35Z</time>
      </trkpt>
      <trkpt lat="47.6948" lon="-2.33948">
        <ele>61</ele>
        <time>2023-11-11T19:25:21Z</time>
      </trkpt>
      <trkpt lat="47.6926" lon="-2.3409">
        <ele>70</ele>
        <time>2023-11-11T19:30:41Z</time>
      </trkpt>
      <trkpt lat="47.69197" lon="-2.33828">
        <ele>74</ele>
        <time>2023-11-11T19:34:51Z</time>
      </trkpt>
      <trkpt lat="47.69127" lon="-2.3382">
        <ele>70</ele>
        <time>2023-11-11T19:36:25Z</time>
      </trkpt>
      <trkpt lat="47.69136" lon="-2.3397">
        <ele>67</ele>
        <time>2023-11-11T19:38:40Z</time>
      </trkpt>
      <trkpt lat="47.69162" lon="-2.34064">
        <ele>65</ele>
        <time>2023-11-11T19:40:11Z</time>
      </trkpt>
      <trkpt lat="47.6913" lon="-2.34279">
        <ele>58</ele>
        <time>2023-11-11T19:43:29Z</time>
      </trkpt>
      <trkpt lat="47.69084" lon="-2.34227">
        <ele>51</ele>
        <time>2023-11-11T19:44:46Z</time>
      </trkpt>
      <trkpt lat="47.69055" lon="-2.34317">
        <ele>52</ele>
        <time>2023-11-11T19:46:16Z</time>
      </trkpt>
      <trkpt lat="47.69049" lon="-2.34511">
        <ele>50</ele>
        <time>2023-11-11T19:49:10Z</time>
      </trkpt>
      <trkpt lat="47.69058" lon="-2.34781">
        <ele>49</ele>
        <time>2023-11-11T19:53:13Z</time>
      </trkpt>
      <trkpt lat="47.68974" lon="-2.34884">
        <ele>48</ele>
        <time>2023-11-11T19:55:38Z</time>
      </trkpt>
      <trkpt lat="47.68888" lon="-2.34901">
        <ele>47</ele>
        <time>2023-11-11T19:57:34Z</time>
      </trkpt>
      <trkpt lat="47.68844" lon="-2.35013">
        <ele>46</ele>
        <time>2023-11-11T19:59:31Z</time>
      </trkpt>
      <trkpt lat="47.68865" lon="-2.3512">
        <ele>45</ele>
        <time>2023-11-11T20:01:11Z</time>
      </trkpt>
      <trkpt lat="47.68989" lon="-2.35202">
        <ele>45</ele>
        <time>2023-11-11T20:04:12Z</time>
      </trkpt>
      <trkpt lat="47.68986" lon="-2.35339">
        <ele>46</ele>
        <time>2023-11-11T20:06:15Z</time>
      </trkpt>
      <trkpt lat="47.68928" lon="-2.35489">
        <ele>48</ele>
        <time>2023-11-11T20:08:51Z</time>
      </trkpt>
      <trkpt lat="47.68922" lon="-2.35635">
        <ele>45</ele>
        <time>2023-11-11T20:11:02Z</time>
      </trkpt>
      <trkpt lat="47.68934" lon="-2.35802">
        <ele>47</ele>
        <time>2023-11-11T20:13:33Z</time>
      </trkpt>
      <trkpt lat="47.6898" lon="-2.35884">
        <ele>48</ele>
        <time>2023-11-11T20:15:09Z</time>
      </trkpt>
      <trkpt lat="47.69018" lon="-2.35721">
        <ele>48</ele>
        <time>2023-11-11T20:17:44Z</time>
      </trkpt>
      <trkpt lat="47.69104" lon="-2.35468">
        <ele>47</ele>
        <time>2023-11-11T20:21:58Z</time>
      </trkpt>
      <trkpt lat="47.69159" lon="-2.35365">
        <ele>54</ele>
        <time>2023-11-11T20:23:56Z</time>
      </trkpt>
      <trkpt lat="47.69211" lon="-2.34987">
        <ele>52</ele>
        <time>2023-11-11T20:29:43Z</time>
      </trkpt>
      <trkpt lat="47.69292" lon="-2.35008">
        <ele>62</ele>
        <time>2023-11-11T20:31:33Z</time>
      </trkpt>
      <trkpt lat="47.69333" lon="-2.35206">
        <ele>75</ele>
        <time>2023-11-11T20:34:39Z</time>
      </trkpt>
      <trkpt lat="47.69489" lon="-2.35347">
        <ele>77</ele>
        <time>2023-11-11T20:38:42Z</time>
      </trkpt>
      <trkpt lat="47.6961" lon="-2.35317">
        <ele>75</ele>
        <time>2023-11-11T20:41:26Z</time>
      </trkpt>
      <trkpt lat="47.70017" lon="-2.35352">
        <ele>58</ele>
        <time>2023-11-11T20:50:30Z</time>
      </trkpt>
      <trkpt lat="47.70052" lon="-2.3545">
        <ele>56</ele>
        <time>2023-11-11T20:52:10Z</time>
      </trkpt>
      <trkpt lat="47.70127" lon="-2.35416">
        <ele>56</ele>
        <time>2023-11-11T20:53:54Z</time>
      </trkpt>
      <trkpt lat="47.7015" lon="-2.35352">
        <ele>58</ele>
        <time>2023-11-11T20:55:00Z</time>
      </trkpt>
      <trkpt lat="47.70254" lon="-2.35352">
        <ele>56</ele>
        <time>2023-11-11T20:57:18Z</time>
      </trkpt>
      <trkpt lat="47.70315" lon="-2.35232">
        <ele>48</ele>
        <time>2023-11-11T20:59:33Z</time>
      </trkpt>
      <trkpt lat="47.70393" lon="-2.35274">
        <ele>48</ele>
        <time>2023-11-11T21:01:24Z</time>
      </trkpt>
      <trkpt lat="47.70395" lon="-2.34927">
        <ele>49</ele>
        <time>2023-11-11T21:06:36Z</time>
      </trkpt>
      <trkpt lat="47.70335" lon="-2.34678">
        <ele>46</ele>
        <time>2023-11-11T21:10:33Z</time>
      </trkpt>
      <trkpt lat="47.70254" lon="-2.34236">
        <ele>45</ele>
        <time>2023-11-11T21:17:25Z</time>
      </trkpt>
      <trkpt lat="47.70185" lon="-2.34039">
        <ele>44</ele>
        <time>2023-11-11T21:20:44Z</time>
      </trkpt>
      <trkpt lat="47.70214" lon="-2.33777">
        <ele>33</ele>
        <time>2023-11-11T21:24:43Z</time>
      </trkpt>
      <trkpt lat="47.70153" lon="-2.33742">
        <ele>29</ele>
        <time>2023-11-11T21:26:10Z</time>
      </trkpt>
      <trkpt lat="47.70185" lon="-2.33425">
        <ele>44</ele>
        <time>2023-11-11T21:30:58Z</time>
      </trkpt>
      <trkpt lat="47.70069" lon="-2.33094">
        <ele>43</ele>
        <time>2023-11-11T21:36:33Z</time>
      </trkpt>
      <trkpt lat="47.69968" lon="-2.32588">
        <ele>60</ele>
        <time>2023-11-11T21:44:27Z</time>
      </trkpt>
      <trkpt lat="47.6998" lon="-2.32391">
        <ele>61</ele>
        <time>2023-11-11T21:47:24Z</time>
      </trkpt>
      <trkpt lat="47.70037" lon="-2.32326">
        <ele>68</ele>
        <time>2023-11-11T21:49:00Z</time>
      </trkpt>
      <trkpt lat="47.7011" lon="-2.31648">
        <ele>80</ele>
        <time>2023-11-11T21:59:17Z</time>
      </trkpt>
      <trkpt lat="47.70199" lon="-2.31545">
        <ele>79</ele>
        <time>2023-11-11T22:01:48Z</time>
      </trkpt>
      <trkpt lat="47.70156" lon="-2.3121">
        <ele>80</ele>
        <time>2023-11-11T22:06:54Z</time>
      </trkpt>
      <trkpt lat="47.7017" lon="-2.31099">
        <ele>81</ele>
        <time>2023-11-11T22:08:35Z</time>
      </trkpt>
      <trkpt lat="47.70294" lon="-2.31099">
        <ele>75</ele>
        <time>2023-11-11T22:11:21Z</time>
      </trkpt>
      <trkpt lat="47.70355" lon="-2.30798">
        <ele>68</ele>
        <time>2023-11-11T22:16:03Z</time>
      </trkpt>
      <trkpt lat="47.70462" lon="-2.30743">
        <ele>47</ele>
        <time>2023-11-11T22:18:34Z</time>
      </trkpt>
      <trkpt lat="47.70629" lon="-2.30717">
        <ele>24</ele>
        <time>2023-11-11T22:22:18Z</time>
      </trkpt>
      <trkpt lat="47.70442" lon="-2.30713">
        <ele>51</ele>
        <time>2023-11-11T22:26:28Z</time>
      </trkpt>
      <trkpt lat="47.70401" lon="-2.30498">
        <ele>55</ele>
        <time>2023-11-11T22:29:48Z</time>
      </trkpt>
      <trkpt lat="47.70479" lon="-2.30292">
        <ele>41</ele>
        <time>2023-11-11T22:33:21Z</time>
      </trkpt>
      <trkpt lat="47.70416" lon="-2.30107">
        <ele>44</ele>
        <time>2023-11-11T22:36:27Z</time>
      </trkpt>
      <trkpt lat="47.70323" lon="-2.30099">
        <ele>62</ele>
        <time>2023-11-11T22:38:31Z</time>
      </trkpt>
      <trkpt lat="47.70254" lon="-2.30026">
        <ele>74</ele>
        <time>2023-11-11T22:40:24Z</time>
      </trkpt>
      <trkpt lat="47.70211" lon="-2.30309">
        <ele>75</ele>
        <time>2023-11-11T22:44:45Z</time>
      </trkpt>
      <trkpt lat="47.70029" lon="-2.30833">
        <ele>77</ele>
        <time>2023-11-11T22:53:34Z</time>
      </trkpt>
      <trkpt lat="47.70092" lon="-2.30961">
        <ele>79</ele>
        <time>2023-11-11T22:55:57Z</time>
      </trkpt>
      <trkpt lat="47.70173" lon="-2.31146">
        <ele>80</ele>
        <time>2023-11-11T22:59:15Z</time>
      </trkpt>
      <trkpt lat="47.70124" lon="-2.31322">
        <ele>79</ele>
        <time>2023-11-11T23:02:06Z</time>
      </trkpt>
      <trkpt lat="47.70107" lon="-2.31567">
        <ele>80</ele>
        <time>2023-11-11T23:05:47Z</time>
      </trkpt>
      <trkpt lat="47.7004" lon="-2.32365">
        <ele>69</ele>
        <time>2023-11-11T23:17:50Z</time>
      </trkpt>
      <trkpt lat="47.69951" lon="-2.32502">
        <ele>58</ele>
        <time>2023-11-11T23:20:41Z</time>
      </trkpt>
      <trkpt lat="47.7" lon="-2.32845">
        <ele>54</ele>
        <time>2023-11-11T23:25:55Z</time>
      </trkpt>
      <trkpt lat="47.70078" lon="-2.33176">
        <ele>38</ele>
        <time>2023-11-11T23:31:10Z</time>
      </trkpt>
      <trkpt lat="47.70193" lon="-2.33524">
        <ele>39</ele>
        <time>2023-11-11T23:36:59Z</time>
      </trkpt>
      <trkpt lat="47.7019" lon="-2.33751">
        <ele>29</ele>
        <time>2023-11-11T23:40:22Z</time>
      </trkpt>
      <trkpt lat="47.7006" lon="-2.33712">
        <ele>41</ele>
        <time>2023-11-11T23:43:19Z</time>
      </trkpt>
      <trkpt lat="47.69936" lon="-2.33489">
        <ele>46</ele>
        <time>2023-11-11T23:47:39Z</time>
      </trkpt>
      <trkpt lat="47.6991" lon="-2.33725">
        <ele>55</ele>
        <time>2023-11-11T23:51:14Z</time>
      </trkpt>
    </trkseg>
  </trk>
</gpx>